createdAt,value
2022-08-27T00:00:32.215Z,16.97
2022-08-27T00:05:47.139Z,16.83
2022-08-27T00:10:57.015Z,16.73
2022-08-27T00:16:07.650Z,16.72
2022-08-27T00:21:16.410Z,16.75
2022-08-27T00:26:24.713Z,16.83
2022-08-27T00:31:32.026Z,16.88
2022-08-27T00:36:39.944Z,16.79
2022-08-27T00:41:47.512Z,16.69
2022-08-27T00:47:02.223Z,16.58
2022-08-27T00:52:15.142Z,16.46
2022-08-27T00:57:23.175Z,16.42
2022-08-27T01:02:32.238Z,16.38
2022-08-27T01:07:45.481Z,16.37
2022-08-27T01:12:55.173Z,16.39
2022-08-27T01:18:07.305Z,16.41
2022-08-27T01:23:24.079Z,16.39
2022-08-27T01:28:35.737Z,16.34
2022-08-27T01:33:57.479Z,16.25
2022-08-27T01:39:05.411Z,16.16
2022-08-27T01:44:13.327Z,16.13
2022-08-27T01:49:21.445Z,16.08
2022-08-27T01:54:28.734Z,16.10
2022-08-27T01:59:39.696Z,16.18
2022-08-27T02:04:48.555Z,16.17
2022-08-27T02:09:55.857Z,16.13
2022-08-27T02:15:05.150Z,16.25
2022-08-27T02:20:14.258Z,16.41
2022-08-27T02:25:22.314Z,16.35
2022-08-27T02:30:32.988Z,16.17
2022-08-27T02:35:45.885Z,15.96
2022-08-27T02:40:54.227Z,15.84
2022-08-27T02:46:02.375Z,15.79
2022-08-27T02:51:10.641Z,15.86
2022-08-27T02:56:21.909Z,15.91
2022-08-27T03:01:31.079Z,15.83
2022-08-27T03:06:40.037Z,15.79
2022-08-27T03:11:49.230Z,15.80
2022-08-27T03:17:17.636Z,15.77
2022-08-27T03:22:27.362Z,15.67
2022-08-27T03:27:35.020Z,15.60
2022-08-27T03:32:42.616Z,15.56
2022-08-27T03:37:50.754Z,15.59
2022-08-27T03:43:00.383Z,15.56
2022-08-27T03:48:08.662Z,15.54
2022-08-27T03:53:17.938Z,15.55
2022-08-27T03:58:26.766Z,15.47
2022-08-27T04:03:34.413Z,15.35
2022-08-27T04:08:42.278Z,15.29
2022-08-27T04:13:51.508Z,15.33
2022-08-27T04:19:00.285Z,15.32
2022-08-27T04:24:12.934Z,15.28
2022-08-27T04:29:22.403Z,15.23
2022-08-27T04:34:30.660Z,15.25
2022-08-27T04:39:39.449Z,15.28
2022-08-27T04:44:47.674Z,15.35
2022-08-27T04:49:55.145Z,15.47
2022-08-27T04:55:04.282Z,15.60
2022-08-27T05:00:12.850Z,15.70
2022-08-27T05:05:20.849Z,15.78
2022-08-27T05:20:13.383Z,16.13
2022-08-27T05:25:20.505Z,16.31
2022-08-27T05:30:27.480Z,16.48
2022-08-27T05:35:34.439Z,16.67
2022-08-27T05:40:43.960Z,16.86
2022-08-27T05:45:51.747Z,17.09
2022-08-27T05:50:58.683Z,17.34
2022-08-27T05:56:06.691Z,17.60
2022-08-27T06:01:14.229Z,17.87
2022-08-27T06:06:23.165Z,18.11
2022-08-27T06:11:30.471Z,18.35
2022-08-27T06:16:38.964Z,18.51
2022-08-27T06:21:46.055Z,18.68
2022-08-27T06:27:08.466Z,18.82
2022-08-27T06:32:16.442Z,18.89
2022-08-27T06:37:23.552Z,18.95
2022-08-27T06:42:33.109Z,19.05
2022-08-27T06:47:41.991Z,19.17
2022-08-27T06:52:49.149Z,19.30
2022-08-27T06:57:56.806Z,19.40
2022-08-27T07:03:05.703Z,19.49
2022-08-27T07:08:12.985Z,19.52
2022-08-27T07:13:20.258Z,19.59
2022-08-27T07:18:27.998Z,19.66
2022-08-27T07:23:36.271Z,19.75
2022-08-27T07:28:45.251Z,19.88
2022-08-27T07:33:53.349Z,20.05
2022-08-27T07:39:01.347Z,20.23
2022-08-27T07:44:34.220Z,20.39
2022-08-27T07:49:42.111Z,20.60
2022-08-27T07:54:49.210Z,20.79
2022-08-27T07:59:56.831Z,20.98
2022-08-27T08:05:04.236Z,21.20
2022-08-27T08:10:13.920Z,21.43
2022-08-27T08:15:22.084Z,21.73
2022-08-27T08:20:54.329Z,22.05
2022-08-27T08:25:57.902Z,22.36
2022-08-27T08:31:05.575Z,22.66
2022-08-27T08:36:15.650Z,22.91
2022-08-27T08:41:41.103Z,23.13
2022-08-27T08:46:55.500Z,23.33
2022-08-27T08:52:30.860Z,23.46
2022-08-27T08:57:43.660Z,23.60
2022-08-27T09:02:55.295Z,23.72
2022-08-27T09:08:31.947Z,23.83
2022-08-27T09:13:41.598Z,23.93
2022-08-27T09:18:51.284Z,24.01
2022-08-27T09:24:07.274Z,24.08
2022-08-27T09:29:17.365Z,24.17
2022-08-27T09:34:25.178Z,24.23
2022-08-27T09:39:37.378Z,24.28
2022-08-27T09:44:54.698Z,24.38
2022-08-27T09:50:09.542Z,24.50
2022-08-27T09:55:29.414Z,24.62
2022-08-27T10:00:40.872Z,24.75
2022-08-27T10:05:52.127Z,24.86
2022-08-27T10:11:04.685Z,24.94
2022-08-27T10:16:33.699Z,25.01
2022-08-27T10:21:48.103Z,25.11
2022-08-27T10:27:07.104Z,25.18
2022-08-27T10:32:32.240Z,25.24
2022-08-27T10:37:52.396Z,25.28
2022-08-27T10:43:09.762Z,25.36
2022-08-27T10:48:29.390Z,25.44
2022-08-27T10:53:45.320Z,25.53
2022-08-27T10:59:02.397Z,25.71
2022-08-27T11:04:16.314Z,25.84
2022-08-27T11:09:38.528Z,25.95
2022-08-27T11:14:52.030Z,26.08
2022-08-27T11:20:08.860Z,26.18
2022-08-27T11:25:37.063Z,26.31
2022-08-27T11:30:54.245Z,26.50
2022-08-27T11:36:25.141Z,26.66
2022-08-27T11:41:46.486Z,26.86
2022-08-27T11:46:56.825Z,26.97
2022-08-27T11:52:07.417Z,27.03
2022-08-27T11:57:27.880Z,27.07
2022-08-27T12:02:34.885Z,27.18
2022-08-27T12:07:45.673Z,27.23
2022-08-27T12:13:11.606Z,27.30
2022-08-27T12:18:38.217Z,27.36
2022-08-27T12:23:54.255Z,27.42
2022-08-27T12:29:29.460Z,27.43
2022-08-27T12:34:48.826Z,27.45
2022-08-27T12:39:58.788Z,27.51
2022-08-27T12:45:07.172Z,27.59
2022-08-27T12:50:16.180Z,27.66
2022-08-27T12:55:36.012Z,27.74
2022-08-27T13:01:03.838Z,27.82
2022-08-27T13:06:22.981Z,27.89
2022-08-27T13:11:32.080Z,27.94
2022-08-27T13:16:40.954Z,27.97
2022-08-27T13:21:51.227Z,28.01
2022-08-27T13:26:58.586Z,28.05
2022-08-27T13:32:06.778Z,28.07
2022-08-27T13:37:26.667Z,28.06
2022-08-27T13:42:33.997Z,28.06
2022-08-27T13:47:48.340Z,28.05
2022-08-27T13:53:22.052Z,28.10
2022-08-27T13:58:32.022Z,28.09
2022-08-27T14:03:48.522Z,28.06
2022-08-27T14:08:55.893Z,28.10
2022-08-27T14:14:03.464Z,28.19
2022-08-27T14:19:14.256Z,28.21
2022-08-27T14:24:21.252Z,28.25
2022-08-27T14:29:28.201Z,28.20
2022-08-27T14:34:35.449Z,28.08
2022-08-27T14:39:44.959Z,27.97
2022-08-27T14:44:53.406Z,27.88
2022-08-27T14:50:00.874Z,27.84
2022-08-27T14:55:10.790Z,27.82
2022-08-27T15:00:19.041Z,27.78
2022-08-27T15:05:27.172Z,27.76
2022-08-27T15:10:34.798Z,27.72
2022-08-27T15:15:42.032Z,27.69
2022-08-27T15:20:49.332Z,27.60
2022-08-27T15:25:56.406Z,27.47
2022-08-27T15:31:03.317Z,27.26
2022-08-27T15:36:10.712Z,27.05
2022-08-27T15:41:17.664Z,26.86
2022-08-27T15:46:25.837Z,26.67
2022-08-27T15:51:34.985Z,26.56
2022-08-27T15:56:41.983Z,26.50
2022-08-27T16:01:49.880Z,26.37
2022-08-27T16:06:57.088Z,26.20
2022-08-27T16:12:04.221Z,26.06
2022-08-27T16:17:12.978Z,25.92
2022-08-27T16:22:20.257Z,25.77
2022-08-27T16:27:27.256Z,25.60
2022-08-27T16:32:35.467Z,25.46
2022-08-27T16:37:42.344Z,25.35
2022-08-27T16:42:52.874Z,25.30
2022-08-27T16:48:20.450Z,25.25
2022-08-27T16:53:27.759Z,25.19
2022-08-27T16:58:35.543Z,25.13
2022-08-27T17:04:07.424Z,25.05
2022-08-27T17:09:15.480Z,25.02
2022-08-27T17:14:22.650Z,24.98
2022-08-27T17:19:29.958Z,24.92
2022-08-27T17:24:37.270Z,24.85
2022-08-27T17:29:44.168Z,24.74
2022-08-27T17:34:51.403Z,24.66
2022-08-27T17:39:59.027Z,24.60
2022-08-27T17:45:06.698Z,24.54
2022-08-27T17:50:13.507Z,24.45
2022-08-27T17:55:20.464Z,24.36
2022-08-27T18:00:27.890Z,24.25
2022-08-27T18:05:34.753Z,24.09
2022-08-27T18:10:42.815Z,23.93
2022-08-27T18:15:51.893Z,23.77
2022-08-27T18:20:58.822Z,23.61
2022-08-27T18:26:06.789Z,23.47
2022-08-27T18:31:14.640Z,23.36
2022-08-27T18:36:21.825Z,23.21
2022-08-27T18:41:31.764Z,23.16
2022-08-27T18:46:38.750Z,23.14
2022-08-27T18:51:50.639Z,23.06
2022-08-27T18:56:59.548Z,22.97
2022-08-27T19:02:15.973Z,22.87
2022-08-27T19:07:23.574Z,22.75
2022-08-27T19:12:30.448Z,22.55
2022-08-27T19:17:40.247Z,22.39
2022-08-27T19:22:48.376Z,22.18
2022-08-27T19:27:55.831Z,21.89
2022-08-27T19:33:03.123Z,21.61
2022-08-27T19:38:12.256Z,21.33
2022-08-27T19:43:19.432Z,21.12
2022-08-27T19:48:26.950Z,20.92
2022-08-27T19:53:35.732Z,20.76
2022-08-27T19:58:43.106Z,20.56
2022-08-27T20:03:50.213Z,20.37
2022-08-27T20:08:57.196Z,20.17
2022-08-27T20:14:04.417Z,20.03
2022-08-27T20:19:11.727Z,19.84
2022-08-27T20:24:19.123Z,19.73
2022-08-27T20:29:32.689Z,19.74
2022-08-27T20:34:40.241Z,19.79
2022-08-27T20:39:48.111Z,19.78
2022-08-27T20:44:55.719Z,19.73
2022-08-27T20:50:03.344Z,19.67
2022-08-27T20:55:12.896Z,19.44
2022-08-27T21:00:21.592Z,19.13
2022-08-27T21:05:28.932Z,18.97
2022-08-27T21:10:36.429Z,18.85
2022-08-27T21:15:43.662Z,18.75
2022-08-27T21:20:50.739Z,18.69
2022-08-27T21:26:01.438Z,18.69
2022-08-27T21:31:08.795Z,18.80
2022-08-27T21:36:15.884Z,18.71
2022-08-27T21:41:23.334Z,18.67
2022-08-27T21:46:30.335Z,18.80
2022-08-27T21:51:37.572Z,18.91
2022-08-27T21:56:44.370Z,18.97
2022-08-27T22:02:00.215Z,19.03
2022-08-27T22:07:08.699Z,19.08
2022-08-27T22:12:15.902Z,19.11
2022-08-27T22:17:23.016Z,19.11
2022-08-27T22:22:30.887Z,19.13
2022-08-27T22:27:38.792Z,19.06
2022-08-27T22:32:46.126Z,19.11
2022-08-27T22:37:53.984Z,19.00
2022-08-27T22:43:01.652Z,18.81
2022-08-27T22:48:08.731Z,18.73
2022-08-27T22:53:16.139Z,18.70
2022-08-27T22:58:24.391Z,18.66
2022-08-27T23:03:31.832Z,18.62
2022-08-27T23:08:38.886Z,18.55
2022-08-27T23:13:46.151Z,18.53
2022-08-27T23:18:53.099Z,18.53
2022-08-27T23:24:01.067Z,18.53
2022-08-27T23:29:08.695Z,18.53
2022-08-27T23:34:16.238Z,18.57
2022-08-27T23:39:23.245Z,18.60
2022-08-27T23:44:31.117Z,18.57
2022-08-27T23:49:39.454Z,18.52
2022-08-27T23:54:46.447Z,18.49
2022-08-27T23:59:53.962Z,18.45
